Airfield :







YOU CAN JOIN US ON...

 
LOGIN :

Register | Disclaimer

   EN    FR    IT 

 









Legend :    VFR   Marginal VFR   IFR   Intensive IFR   Very Intensive IFR
Visi :
Ceiling :
>= 8 km
>= 3000ft
5 to 8 km
1000 to 3000 ft
1500m to 5 km
500 to 1000 ft
800 to 1500m
200 to 500 ft
< 800m
< 200 ft
Symbols :   Thunderstorms  Fog  Heavy snow  Heavy precipitations  Wind > 20 kt






- Airport Elevation : 59 ft
- IATA code : PBM


SMJP - J.A. Pengel Int.

CURRENT METAR :
  • 020300Z 09002KT 9999 FEW010 25/23 Q1009 NOSIG

EXPIRED METARs :
  • 020200Z 06005KT 9999 FEW010 25/23 Q1009 NOSIG
  • 020100Z 03005KT 9999 FEW010 25/23 Q1009 NOSIG

TAF TAF SMJP
Valid from the 02 at 00:00 until the 03 at 00:00 UTC


012200Z 0200/0224 09005KT 9999 FEW010 SCT020 TX32/0217Z TN23/0207Z
PROB30
TEMPO 0207/0211 VRB01KT 1500 BR SCT002
TEMPO 0217/0221 VRB10G20KT 5000 TSRA FEW018CB SCT025
SMPM FIR / South America



MET'MAP, your aeronautical weather chart ! - Copyright ORBIFLY December 2007 - Disclaimer

ORBIFLY MET'MAP TEAM :

Programming & Development : Alexandra Zaïnal
Original concept : Baudouin d'Aumeries
Technical & hardware support : Manuel Goepfert
Assistance : Marc-Olivier Méhu




SOURCES & CREDITS :

   NOAA